aviador You're here:

KMVH Decoded Metar

in
Report Time2017-12-11 05:20:00
UTC Time2017-12-11 05:28:33
Flight Rules vfr VFR
Wind310° at 17 Gusting to 25 kt
W.Rank310° ranks 1
Current wind is above 310° avg. (11.9)
Visibility9999 m
Phenomena:N/A
Clouds:N/A
Expected CloudBase > 7,600 ft AGL from Temp-Dew spread
CeilingNone
Temp08°C
Dew Point-11°C (25% RH)
AAT-1.2°C
QNH1027 hPa
Raw Report
KMVH 110520Z AUTO 31017G25KT 10SM CLR 08/M11 A3032 RMK AO2=

Extra information for KMVH:More info

Social comments